createdAt,value
2019-04-26T00:02:45.135Z,13.28
2019-04-26T00:05:36.259Z,13.25
2019-04-26T00:08:25.820Z,13.23
2019-04-26T00:11:22.372Z,13.18
2019-04-26T00:14:37.215Z,13.17
2019-04-26T00:17:30.222Z,13.13
2019-04-26T00:20:19.392Z,13.09
2019-04-26T00:23:10.597Z,13.06
2019-04-26T00:26:00.386Z,13.02
2019-04-26T00:28:50.383Z,13.00
2019-04-26T00:31:39.854Z,12.96
2019-04-26T00:34:29.830Z,12.92
2019-04-26T00:37:19.147Z,12.90
2019-04-26T00:40:11.688Z,12.86
2019-04-26T00:43:02.824Z,12.81
2019-04-26T00:45:52.496Z,12.80
2019-04-26T00:48:42.277Z,12.78
2019-04-26T00:51:31.955Z,12.72
2019-04-26T00:54:22.212Z,12.69
2019-04-26T00:57:11.516Z,12.67
2019-04-26T01:00:01.535Z,12.63
2019-04-26T01:02:54.545Z,12.60
2019-04-26T01:05:44.302Z,12.56
2019-04-26T01:08:33.954Z,12.53
2019-04-26T01:11:23.906Z,12.52
2019-04-26T01:14:13.747Z,12.49
2019-04-26T01:17:03.365Z,12.45
2019-04-26T01:19:53.073Z,12.44
2019-04-26T01:22:47.403Z,12.42
2019-04-26T01:25:46.986Z,12.41
2019-04-26T01:28:44.343Z,12.40
2019-04-26T01:31:38.838Z,12.39
2019-04-26T01:34:28.264Z,12.37
2019-04-26T01:37:18.311Z,12.37
2019-04-26T01:40:12.257Z,12.37
2019-04-26T01:43:27.028Z,12.36
2019-04-26T01:46:21.645Z,12.35
2019-04-26T01:49:12.087Z,12.34
2019-04-26T01:52:09.044Z,12.34
2019-04-26T01:54:58.241Z,12.33
2019-04-26T01:57:48.279Z,12.32
2019-04-26T02:00:54.166Z,12.32
2019-04-26T02:06:35.283Z,12.31
2019-04-26T02:09:25.151Z,12.29
2019-04-26T02:12:14.731Z,12.29
2019-04-26T02:15:03.693Z,12.28
2019-04-26T02:17:54.619Z,12.25
2019-04-26T02:21:06.906Z,12.26
2019-04-26T02:24:25.312Z,12.25
2019-04-26T02:27:34.547Z,12.25
2019-04-26T02:30:26.348Z,12.24
2019-04-26T02:33:15.460Z,12.23
2019-04-26T02:36:05.322Z,12.24
2019-04-26T02:38:57.240Z,12.23
2019-04-26T02:41:47.581Z,12.23
2019-04-26T02:44:43.161Z,12.21
2019-04-26T02:47:53.668Z,12.23
2019-04-26T02:50:46.465Z,12.21
2019-04-26T02:54:19.444Z,12.20
2019-04-26T02:57:08.705Z,12.21
2019-04-26T03:00:06.824Z,12.20
2019-04-26T03:03:05.057Z,12.19
2019-04-26T03:05:54.934Z,12.17
2019-04-26T03:08:44.529Z,12.17
2019-04-26T03:11:48.413Z,12.17
2019-04-26T03:14:44.563Z,12.16
2019-04-26T03:17:53.547Z,12.16
2019-04-26T03:20:45.316Z,12.15
2019-04-26T03:23:58.275Z,12.14
2019-04-26T03:27:19.448Z,12.13
2019-04-26T03:30:21.029Z,12.13
2019-04-26T03:33:55.435Z,12.12
2019-04-26T03:37:49.461Z,12.12
2019-04-26T03:41:03.220Z,12.09
2019-04-26T03:44:13.458Z,12.08
2019-04-26T03:47:03.653Z,12.08
2019-04-26T03:50:13.499Z,12.07
2019-04-26T03:53:36.298Z,12.06
2019-04-26T03:57:01.014Z,12.06
2019-04-26T04:00:22.564Z,12.05
2019-04-26T04:03:37.479Z,12.05
2019-04-26T04:06:30.210Z,12.03
2019-04-26T04:09:19.892Z,12.02
2019-04-26T04:12:24.345Z,12.01
2019-04-26T04:15:28.492Z,12.01
2019-04-26T04:18:22.819Z,11.98
2019-04-26T04:21:33.181Z,11.99
2019-04-26T04:24:39.896Z,11.97
2019-04-26T04:27:40.039Z,11.97
2019-04-26T04:31:03.055Z,11.95
2019-04-26T04:34:42.094Z,11.94
2019-04-26T04:37:54.466Z,11.95
2019-04-26T04:41:15.212Z,11.92
2019-04-26T04:44:16.928Z,11.92
2019-04-26T04:47:31.326Z,11.91
2019-04-26T04:50:37.144Z,11.91
2019-04-26T04:53:51.764Z,11.91
2019-04-26T04:57:19.337Z,11.88
2019-04-26T05:00:45.104Z,11.88
2019-04-26T05:04:01.071Z,11.88
2019-04-26T05:07:35.889Z,11.87
2019-04-26T05:10:36.003Z,11.88
2019-04-26T05:13:54.787Z,11.87
2019-04-26T05:17:17.316Z,11.88
2019-04-26T05:20:34.724Z,11.88
2019-04-26T05:24:01.048Z,11.87
2019-04-26T05:27:37.093Z,11.87
2019-04-26T05:31:08.408Z,11.87
2019-04-26T05:34:29.449Z,11.87
2019-04-26T05:37:44.835Z,11.87
2019-04-26T05:41:19.855Z,11.88
2019-04-26T05:44:24.758Z,11.88
2019-04-26T05:47:35.282Z,11.88
2019-04-26T05:51:36.316Z,11.88
2019-04-26T05:54:49.792Z,11.88
2019-04-26T05:58:13.605Z,11.89
2019-04-26T06:01:53.324Z,11.89
2019-04-26T06:05:54.390Z,11.91
2019-04-26T06:09:30.533Z,11.92
2019-04-26T06:12:35.387Z,11.93
2019-04-26T06:15:42.747Z,11.96
2019-04-26T06:18:57.258Z,11.98
2019-04-26T06:22:27.308Z,12.00
2019-04-26T06:25:33.313Z,12.02
2019-04-26T06:28:52.924Z,12.05
2019-04-26T06:31:55.901Z,12.06
2019-04-26T06:35:21.906Z,12.10
2019-04-26T06:39:19.681Z,12.13
2019-04-26T06:43:28.146Z,12.18
2019-04-26T06:46:37.387Z,12.24
2019-04-26T06:50:08.578Z,12.30
2019-04-26T06:53:30.528Z,12.34
2019-04-26T06:57:12.675Z,12.39
2019-04-26T07:00:08.761Z,12.46
2019-04-26T07:03:27.641Z,12.50
2019-04-26T07:06:17.200Z,12.55
2019-04-26T07:09:09.862Z,12.59
2019-04-26T07:12:53.291Z,12.65
2019-04-26T07:16:23.018Z,12.67
2019-04-26T07:19:16.907Z,12.74
2019-04-26T07:22:35.433Z,12.79
2019-04-26T07:26:29.117Z,12.86
2019-04-26T07:30:22.804Z,12.98
2019-04-26T07:34:11.464Z,13.10
2019-04-26T07:38:02.675Z,13.20
2019-04-26T07:41:28.856Z,13.27
2019-04-26T07:45:10.644Z,13.33
2019-04-26T07:49:00.309Z,13.38
2019-04-26T07:52:44.141Z,13.43
2019-04-26T07:56:45.078Z,13.49
2019-04-26T08:00:12.946Z,13.56
2019-04-26T08:03:23.757Z,13.70
2019-04-26T08:06:31.196Z,13.84
2019-04-26T08:09:26.925Z,13.97
2019-04-26T08:12:14.143Z,14.10
2019-04-26T08:15:17.990Z,14.19
2019-04-26T08:18:22.032Z,14.28
2019-04-26T08:21:38.074Z,14.35
2019-04-26T08:24:28.248Z,14.40
2019-04-26T08:27:24.015Z,14.45
2019-04-26T08:30:17.025Z,14.46
2019-04-26T08:33:07.540Z,14.50
2019-04-26T08:35:59.504Z,14.52
2019-04-26T08:38:52.509Z,14.57
2019-04-26T08:41:42.132Z,14.59
2019-04-26T08:44:51.090Z,14.64
2019-04-26T08:47:53.612Z,14.70
2019-04-26T08:50:47.059Z,14.75
2019-04-26T08:53:38.304Z,14.80
2019-04-26T08:56:32.441Z,14.88
2019-04-26T08:59:26.791Z,15.02
2019-04-26T09:02:37.411Z,15.16
2019-04-26T09:05:54.461Z,15.27
2019-04-26T09:08:45.109Z,15.38
2019-04-26T09:11:35.032Z,15.47
2019-04-26T09:14:25.769Z,15.54
2019-04-26T09:17:18.286Z,15.61
2019-04-26T09:20:09.750Z,15.70
2019-04-26T09:23:39.495Z,15.80
2019-04-26T09:26:27.816Z,15.91
2019-04-26T09:29:22.703Z,16.05
2019-04-26T09:32:14.876Z,16.19
2019-04-26T09:35:04.432Z,16.33
2019-04-26T09:37:55.597Z,16.47
2019-04-26T09:40:45.092Z,16.62
2019-04-26T09:43:44.056Z,16.72
2019-04-26T09:47:04.699Z,16.79
2019-04-26T09:50:15.255Z,16.84
2019-04-26T09:53:03.235Z,16.90
2019-04-26T09:55:52.369Z,16.96
2019-04-26T09:58:41.860Z,17.02
2019-04-26T10:01:32.635Z,17.06
2019-04-26T10:04:22.020Z,17.11
2019-04-26T10:07:12.254Z,17.14
2019-04-26T10:10:02.089Z,17.17
2019-04-26T10:13:01.708Z,17.20
2019-04-26T10:15:58.186Z,17.22
2019-04-26T10:18:50.283Z,17.24
2019-04-26T10:21:40.034Z,17.29
2019-04-26T10:24:29.226Z,17.35
2019-04-26T10:27:18.734Z,17.43
2019-04-26T10:30:10.103Z,17.52
2019-04-26T10:33:02.237Z,17.66
2019-04-26T10:35:52.448Z,17.79
2019-04-26T10:38:41.745Z,17.95
2019-04-26T10:41:31.522Z,18.06
2019-04-26T10:44:21.084Z,18.18
2019-04-26T10:47:11.395Z,18.28
2019-04-26T10:50:00.480Z,18.39
2019-04-26T10:53:00.066Z,18.51
2019-04-26T10:56:24.288Z,18.70
2019-04-26T10:59:22.788Z,18.95
2019-04-26T11:02:15.668Z,19.18
2019-04-26T11:05:05.689Z,19.25
2019-04-26T11:07:55.143Z,19.36
2019-04-26T11:10:48.836Z,19.41
2019-04-26T11:13:36.503Z,19.46
2019-04-26T11:16:26.415Z,19.49
2019-04-26T11:19:16.155Z,19.51
2019-04-26T11:22:05.585Z,19.52
2019-04-26T11:24:55.048Z,19.52
2019-04-26T11:27:48.534Z,19.55
2019-04-26T11:30:35.946Z,19.61
2019-04-26T11:33:25.119Z,19.72
2019-04-26T11:36:14.457Z,19.91
2019-04-26T11:39:07.469Z,20.16
2019-04-26T11:41:57.416Z,20.40
2019-04-26T11:44:47.212Z,20.64
2019-04-26T11:47:37.075Z,20.85
2019-04-26T11:50:27.246Z,21.09
2019-04-26T11:53:16.507Z,21.29
2019-04-26T11:56:05.833Z,21.45
2019-04-26T11:58:56.912Z,21.59
2019-04-26T12:01:46.179Z,21.68
2019-04-26T12:04:49.730Z,21.72
2019-04-26T12:07:44.325Z,21.72
2019-04-26T12:10:33.217Z,21.69
2019-04-26T12:13:24.914Z,21.64
2019-04-26T12:16:14.578Z,21.60
2019-04-26T12:19:05.629Z,21.53
2019-04-26T12:21:54.721Z,21.47
2019-04-26T12:24:43.577Z,21.41
2019-04-26T12:27:32.382Z,21.35
2019-04-26T12:30:26.376Z,21.29
2019-04-26T12:33:12.536Z,21.28
2019-04-26T12:36:02.523Z,21.30
2019-04-26T12:38:58.269Z,21.33
2019-04-26T12:41:48.653Z,21.36
2019-04-26T12:47:45.838Z,21.35
2019-04-26T12:50:37.706Z,21.30
2019-04-26T12:53:31.487Z,21.23
2019-04-26T12:56:17.944Z,21.16
2019-04-26T12:59:06.830Z,21.08
2019-04-26T13:02:05.611Z,20.99
2019-04-26T13:04:47.394Z,20.91
2019-04-26T13:07:39.078Z,20.84
2019-04-26T13:10:52.985Z,20.79
2019-04-26T13:13:55.966Z,20.77
2019-04-26T13:16:51.503Z,20.78
2019-04-26T13:19:40.715Z,20.83
2019-04-26T13:22:32.033Z,20.93
2019-04-26T13:25:26.586Z,21.01
2019-04-26T13:28:15.670Z,21.09
2019-04-26T13:31:04.264Z,21.11
2019-04-26T13:33:53.611Z,21.11
2019-04-26T13:36:42.896Z,21.07
2019-04-26T13:39:31.759Z,21.05
2019-04-26T13:42:21.130Z,21.01
2019-04-26T13:45:33.823Z,20.97
2019-04-26T13:48:39.226Z,20.96
2019-04-26T13:51:30.627Z,20.94
2019-04-26T13:54:21.209Z,20.93
2019-04-26T13:57:11.285Z,21.00
2019-04-26T14:00:02.488Z,21.02
2019-04-26T14:02:51.083Z,21.00
2019-04-26T14:05:39.855Z,21.01
2019-04-26T14:08:30.977Z,21.02
2019-04-26T14:11:27.892Z,21.09
2019-04-26T14:14:12.053Z,21.07
2019-04-26T14:17:01.724Z,21.10
2019-04-26T14:19:51.157Z,21.09
2019-04-26T14:22:46.912Z,21.09
2019-04-26T14:26:10.546Z,21.16
2019-04-26T14:28:59.729Z,21.30
2019-04-26T14:31:51.541Z,21.49
2019-04-26T14:34:41.668Z,21.68
2019-04-26T14:37:31.703Z,21.83
2019-04-26T14:40:21.483Z,22.03
2019-04-26T14:43:12.439Z,22.19
2019-04-26T14:46:03.943Z,22.36
2019-04-26T14:49:01.367Z,22.52
2019-04-26T14:51:46.961Z,22.69
2019-04-26T14:54:34.738Z,22.87
2019-04-26T14:57:30.872Z,23.03
2019-04-26T15:00:16.703Z,23.16
2019-04-26T15:03:31.216Z,23.32
2019-04-26T15:06:23.829Z,23.44
2019-04-26T15:09:19.774Z,23.55
2019-04-26T15:12:07.716Z,23.63
2019-04-26T15:14:56.739Z,23.70
2019-04-26T15:17:46.256Z,23.83
2019-04-26T15:20:36.102Z,23.98
2019-04-26T15:23:26.619Z,24.10
2019-04-26T15:26:18.523Z,24.19
2019-04-26T15:29:07.147Z,24.23
2019-04-26T15:31:57.339Z,24.27
2019-04-26T15:34:47.196Z,24.30
2019-04-26T15:37:36.601Z,24.34
2019-04-26T15:40:35.288Z,24.43
2019-04-26T15:43:34.730Z,24.49
2019-04-26T15:46:33.631Z,24.57
2019-04-26T15:49:36.510Z,24.68
2019-04-26T15:52:25.044Z,24.78
2019-04-26T15:55:14.712Z,24.88
2019-04-26T15:58:08.338Z,24.99
2019-04-26T16:00:58.838Z,25.09
2019-04-26T16:03:48.267Z,25.18
2019-04-26T16:06:41.913Z,25.27
2019-04-26T16:09:30.076Z,25.38
2019-04-26T16:12:20.328Z,25.46
2019-04-26T16:15:11.478Z,25.54
2019-04-26T16:18:03.919Z,25.59
2019-04-26T16:20:53.335Z,25.62
2019-04-26T16:23:50.970Z,25.55
2019-04-26T16:26:34.152Z,25.45
2019-04-26T16:29:58.279Z,25.48
2019-04-26T16:33:10.982Z,25.49
2019-04-26T16:36:02.563Z,25.40
2019-04-26T16:38:56.102Z,25.21
2019-04-26T16:41:42.196Z,25.02
2019-04-26T16:44:33.473Z,24.79
2019-04-26T16:47:23.381Z,24.59
2019-04-26T16:50:21.318Z,24.38
2019-04-26T16:53:04.984Z,24.21
2019-04-26T16:55:54.853Z,24.00
2019-04-26T16:58:45.405Z,23.82
2019-04-26T17:01:38.112Z,23.63
2019-04-26T17:04:31.987Z,23.46
2019-04-26T17:07:22.287Z,23.26
2019-04-26T17:10:09.258Z,23.08
2019-04-26T17:12:58.670Z,22.93
2019-04-26T17:15:51.973Z,22.79
2019-04-26T17:18:38.740Z,22.65
2019-04-26T17:21:29.621Z,22.52
2019-04-26T17:24:43.840Z,22.38
2019-04-26T17:27:33.083Z,22.26
2019-04-26T17:30:25.233Z,22.12
2019-04-26T17:33:14.192Z,22.01
2019-04-26T17:36:03.033Z,21.89
2019-04-26T17:38:51.784Z,21.79
2019-04-26T17:41:45.091Z,21.70
2019-04-26T17:44:34.179Z,21.59
2019-04-26T17:47:23.797Z,21.45
2019-04-26T17:50:12.748Z,21.34
2019-04-26T17:53:02.247Z,21.26
2019-04-26T17:55:54.832Z,21.15
2019-04-26T17:58:51.188Z,21.04
2019-04-26T18:01:42.941Z,20.95
2019-04-26T18:04:34.377Z,20.85
2019-04-26T18:07:39.360Z,20.76
2019-04-26T18:10:10.267Z,20.67
2019-04-26T18:12:57.777Z,20.58
2019-04-26T18:15:52.751Z,20.48
2019-04-26T18:19:02.461Z,20.40
2019-04-26T18:22:19.379Z,20.32
2019-04-26T18:25:12.563Z,20.24
2019-04-26T18:28:00.563Z,20.14
2019-04-26T18:30:56.951Z,20.06
2019-04-26T18:33:46.531Z,19.98
2019-04-26T18:36:35.885Z,19.91
2019-04-26T18:39:26.510Z,19.82
2019-04-26T18:42:16.467Z,19.75
2019-04-26T18:45:07.216Z,19.68
2019-04-26T18:48:01.132Z,19.61
2019-04-26T18:50:47.830Z,19.54
2019-04-26T18:54:05.085Z,19.45
2019-04-26T18:56:58.767Z,19.39
2019-04-26T18:59:51.127Z,19.28
2019-04-26T19:02:39.579Z,19.22
2019-04-26T19:05:30.190Z,19.13
2019-04-26T19:08:26.571Z,19.05
2019-04-26T19:11:11.843Z,18.97
2019-04-26T19:14:21.893Z,18.89
2019-04-26T19:17:22.053Z,18.80
2019-04-26T19:20:32.311Z,18.71
2019-04-26T19:23:28.603Z,18.62
2019-04-26T19:26:13.820Z,18.52
2019-04-26T19:29:15.479Z,18.43
2019-04-26T19:31:56.681Z,18.36
2019-04-26T19:34:46.155Z,18.27
2019-04-26T19:37:36.974Z,18.18
2019-04-26T19:40:47.774Z,18.08
2019-04-26T19:43:39.143Z,18.00
2019-04-26T19:46:38.639Z,17.88
2019-04-26T19:49:54.373Z,17.80
2019-04-26T19:53:10.240Z,17.70
2019-04-26T19:56:24.817Z,17.59
2019-04-26T19:59:12.325Z,17.49
2019-04-26T20:02:09.375Z,17.38
2019-04-26T20:05:02.432Z,17.30
2019-04-26T20:07:53.669Z,17.20
2019-04-26T20:10:45.879Z,17.12
2019-04-26T20:13:36.157Z,17.03
2019-04-26T20:16:29.997Z,16.96
2019-04-26T20:19:33.731Z,16.87
2019-04-26T20:22:12.171Z,16.78
2019-04-26T20:25:03.861Z,16.70
2019-04-26T20:27:59.657Z,16.61
2019-04-26T20:30:57.913Z,16.54
2019-04-26T20:33:47.870Z,16.47
2019-04-26T20:36:41.542Z,16.39
2019-04-26T20:39:31.986Z,16.33
2019-04-26T20:42:23.317Z,16.26
2019-04-26T20:45:16.990Z,16.18
2019-04-26T20:48:07.147Z,16.12
2019-04-26T20:50:56.633Z,16.04
2019-04-26T20:53:46.112Z,15.98
2019-04-26T20:56:35.319Z,15.90
2019-04-26T20:59:24.806Z,15.83
2019-04-26T21:02:16.264Z,15.78
2019-04-26T21:05:10.297Z,15.71
2019-04-26T21:08:00.051Z,15.67
2019-04-26T21:10:49.227Z,15.60
2019-04-26T21:13:41.461Z,15.54
2019-04-26T21:16:32.274Z,15.50
2019-04-26T21:19:21.616Z,15.45
2019-04-26T21:22:10.900Z,15.41
2019-04-26T21:25:06.687Z,15.34
2019-04-26T21:28:15.196Z,15.30
2019-04-26T21:31:29.239Z,15.25
2019-04-26T21:34:39.834Z,15.18
2019-04-26T21:37:39.904Z,15.13
2019-04-26T21:40:43.758Z,15.09
2019-04-26T21:43:36.970Z,15.03
2019-04-26T21:46:23.972Z,14.98
2019-04-26T21:49:20.309Z,14.93
2019-04-26T21:52:04.927Z,14.86
2019-04-26T21:54:58.187Z,14.81
2019-04-26T21:57:51.532Z,14.78
2019-04-26T22:00:57.693Z,14.73
2019-04-26T22:03:53.606Z,14.69
2019-04-26T22:06:38.141Z,14.64
2019-04-26T22:09:39.626Z,14.60
2019-04-26T22:12:31.293Z,14.55
2019-04-26T22:15:37.586Z,14.50
2019-04-26T22:18:33.060Z,14.49
2019-04-26T22:21:30.278Z,14.45
2019-04-26T22:24:30.539Z,14.41
2019-04-26T22:27:21.908Z,14.39
2019-04-26T22:30:17.589Z,14.36
2019-04-26T22:33:06.936Z,14.31
2019-04-26T22:35:58.543Z,14.29
2019-04-26T22:38:49.172Z,14.26
2019-04-26T22:41:38.511Z,14.23
2019-04-26T22:44:38.785Z,14.20
2019-04-26T22:47:50.543Z,14.16
2019-04-26T22:50:40.548Z,14.13
2019-04-26T22:53:30.531Z,14.10
2019-04-26T22:56:23.229Z,14.06
2019-04-26T22:59:13.905Z,14.03
2019-04-26T23:02:06.132Z,13.97
2019-04-26T23:05:00.643Z,13.96
2019-04-26T23:07:49.038Z,13.91
2019-04-26T23:10:45.608Z,13.87
2019-04-26T23:13:44.783Z,13.83
2019-04-26T23:17:04.155Z,13.79
2019-04-26T23:19:49.380Z,13.76
2019-04-26T23:22:39.039Z,13.71
2019-04-26T23:25:31.285Z,13.70
2019-04-26T23:28:20.021Z,13.64
2019-04-26T23:31:10.101Z,13.61
2019-04-26T23:33:59.632Z,13.58
2019-04-26T23:36:50.294Z,13.54
2019-04-26T23:39:44.409Z,13.52
2019-04-26T23:42:30.148Z,13.47
2019-04-26T23:45:23.116Z,13.43
2019-04-26T23:48:13.463Z,13.40
2019-04-26T23:51:08.394Z,13.37
2019-04-26T23:53:57.782Z,13.33
2019-04-26T23:56:47.077Z,13.29
2019-04-26T23:59:36.569Z,13.26
